Time;durP1;ratioP1;P1;durP2;ratioP2;P2;SDS_P1;SDS_P2;PMS_P1;PMS_P2;Temp;Humidity;BMP_temperature;BMP_pressure;BME280_temperature;BME280_humidity;BME280_pressure;Samples;Min_cycle;Max_cycle;Signal;HPM_P1;HPM_P2
2021/04/26 00:02:07;;;;;;;10.18;5.35;;;3.90;99.90;;;;;;5029865;28;20026;-71
2021/04/26 00:04:33;;;;;;;6.43;4.45;;;3.80;99.90;;;;;;5031231;28;20017;-71
2021/04/26 00:06:58;;;;;;;7.57;4.13;;;3.80;99.90;;;;;;5029909;28;20033;-72
2021/04/26 00:09:24;;;;;;;7.65;4.43;;;3.70;99.90;;;;;;5031228;28;20030;-72
2021/04/26 00:11:50;;;;;;;9.60;5.28;;;3.70;99.90;;;;;;5031255;28;20048;-71
2021/04/26 00:14:15;;;;;;;9.73;4.85;;;3.70;99.90;;;;;;5031079;28;20028;-71
2021/04/26 00:16:41;;;;;;;13.45;4.70;;;3.70;99.90;;;;;;5030987;28;20060;-71
2021/04/26 00:19:07;;;;;;;8.93;5.20;;;3.70;99.90;;;;;;5030939;28;20501;-72
2021/04/26 00:21:33;;;;;;;7.93;4.90;;;3.60;99.90;;;;;;5031048;28;20501;-71
2021/04/26 00:23:59;;;;;;;8.23;5.18;;;3.60;99.90;;;;;;5030859;28;20100;-71
2021/04/26 00:26:25;;;;;;;9.82;5.00;;;3.50;99.90;;;;;;5030986;28;20121;-71
2021/04/26 00:28:50;;;;;;;8.27;4.90;;;3.50;99.90;;;;;;5029546;28;20040;-72
2021/04/26 00:31:16;;;;;;;8.63;5.68;;;3.40;99.90;;;;;;5030769;28;20032;-71
2021/04/26 00:33:42;;;;;;;8.90;5.35;;;3.40;99.90;;;;;;5030539;28;20042;-72
2021/04/26 00:36:08;;;;;;;9.65;5.10;;;3.30;99.90;;;;;;5030734;28;20022;-71
2021/04/26 00:38:34;;;;;;;8.93;5.18;;;3.30;99.90;;;;;;5030655;28;20025;-71
2021/04/26 00:40:59;;;;;;;9.18;5.22;;;3.30;99.90;;;;;;5028537;28;20064;-71
2021/04/26 00:43:25;;;;;;;7.40;5.00;;;3.20;99.90;;;;;;5030590;28;20458;-71
2021/04/26 00:45:50;;;;;;;12.00;5.45;;;3.20;99.90;;;;;;5030348;28;20027;-71
2021/04/26 00:48:16;;;;;;;7.07;4.57;;;3.20;99.90;;;;;;5030677;28;20096;-71
2021/04/26 00:50:42;;;;;;;10.20;5.10;;;3.10;99.90;;;;;;5029072;28;20029;-72
2021/04/26 00:53:08;;;;;;;9.68;5.00;;;3.10;99.90;;;;;;5030279;28;20028;-71
2021/04/26 00:55:36;;;;;;;9.50;5.30;;;3.10;99.90;;;;;;5030512;28;20033;-72
2021/04/26 00:58:02;;;;;;;9.38;4.90;;;3.10;99.90;;;;;;5030238;28;20033;-71
2021/04/26 01:00:29;;;;;;;8.10;5.05;;;3.10;99.90;;;;;;5028883;28;20026;-71
2021/04/26 01:02:55;;;;;;;10.38;5.53;;;3.10;99.90;;;;;;5030024;28;20409;-71
2021/04/26 01:05:23;;;;;;;10.48;6.07;;;3.10;99.90;;;;;;5030016;28;20034;-71
2021/04/26 01:07:50;;;;;;;11.27;5.35;;;3.10;99.90;;;;;;5030096;28;20026;-71
2021/04/26 01:10:20;;;;;;;10.70;5.80;;;3.10;99.90;;;;;;5028757;28;20029;-71
2021/04/26 01:13:07;;;;;;;9.48;5.82;;;3.10;99.90;;;;;;5030164;28;20021;-72
2021/04/26 01:16:01;;;;;;;12.90;7.20;;;3.00;99.90;;;;;;5030311;28;20482;-72
2021/04/26 01:18:37;;;;;;;12.52;6.63;;;3.00;99.90;;;;;;5030406;28;20056;-72
2021/04/26 01:21:40;;;;;;;8.40;5.18;;;3.10;99.90;;;;;;5028569;28;20029;-71
2021/04/26 01:24:05;;;;;;;;;;;3.10;99.90;;;;;;5030398;28;20029;-71
2021/04/26 01:26:49;;;;;;;9.07;5.20;;;3.10;99.90;;;;;;5028374;28;20094;-71
2021/04/26 01:29:36;;;;;;;9.43;5.50;;;3.10;99.90;;;;;;5029927;28;20034;-71
2021/04/26 01:32:29;;;;;;;8.05;5.38;;;3.10;99.90;;;;;;5029443;28;20052;-72
2021/04/26 01:34:57;;;;;;;9.95;5.78;;;3.20;99.90;;;;;;5028313;28;20546;-71
2021/04/26 01:37:24;;;;;;;13.75;6.80;;;3.20;99.90;;;;;;5029468;28;20025;-71
2021/04/26 01:39:51;;;;;;;10.93;6.00;;;3.30;99.90;;;;;;5029849;28;20438;-71
2021/04/26 01:42:18;;;;;;;9.82;5.47;;;3.30;99.90;;;;;;5028162;28;20080;-72
2021/04/26 01:44:44;;;;;;;12.45;6.43;;;3.40;99.90;;;;;;5029708;28;20433;-71
2021/04/26 01:47:10;;;;;;;12.98;6.03;;;3.50;99.90;;;;;;5028018;28;20079;-73
2021/04/26 01:49:39;;;;;;;10.10;5.80;;;3.50;99.90;;;;;;5029377;28;20022;-72
2021/04/26 01:52:07;;;;;;;10.95;5.80;;;3.50;99.90;;;;;;5029233;28;20094;-72
2021/04/26 01:54:33;;;;;;;13.93;5.32;;;3.50;99.90;;;;;;5029328;28;20104;-71
2021/04/26 01:56:59;;;;;;;10.95;6.03;;;3.60;99.90;;;;;;5028119;28;20037;-71
2021/04/26 01:59:26;;;;;;;8.52;5.30;;;3.70;99.90;;;;;;5029386;28;20363;-71
2021/04/26 02:01:57;;;;;;;11.48;5.82;;;3.80;99.90;;;;;;5029473;28;20033;-72
2021/04/26 02:04:29;;;;;;;14.82;5.65;;;3.80;99.90;;;;;;5028079;28;20029;-71
2021/04/26 02:06:56;;;;;;;10.07;5.55;;;3.80;99.90;;;;;;5027960;28;20482;-71
2021/04/26 02:09:22;;;;;;;9.90;5.13;;;3.80;99.90;;;;;;5029257;28;20033;-71
2021/04/26 02:11:48;;;;;;;9.43;5.57;;;3.70;99.90;;;;;;5029191;28;20112;-72
2021/04/26 02:14:15;;;;;;;10.27;5.65;;;3.70;99.90;;;;;;5027968;28;20508;-72
2021/04/26 02:16:40;;;;;;;11.35;6.40;;;3.60;99.90;;;;;;5029232;28;20107;-72
2021/04/26 02:19:06;;;;;;;12.45;6.03;;;3.70;99.90;;;;;;5029756;28;20065;-71
2021/04/26 02:21:33;;;;;;;11.50;5.88;;;3.70;99.90;;;;;;5027807;28;20026;-71
2021/04/26 02:23:58;;;;;;;8.88;5.22;;;3.80;99.90;;;;;;5027910;28;20055;-71
2021/04/26 02:26:24;;;;;;;12.25;6.45;;;3.80;99.90;;;;;;5029070;28;20033;-71
2021/04/26 02:28:50;;;;;;;11.38;6.00;;;3.80;99.90;;;;;;5029178;28;20065;-71
2021/04/26 02:31:21;;;;;;;11.63;6.63;;;3.80;99.90;;;;;;5029308;28;20025;-71
2021/04/26 02:33:57;;;;;;;10.60;6.07;;;3.80;99.90;;;;;;5028953;28;20030;-71
2021/04/26 02:36:29;;;;;;;11.70;5.93;;;3.80;99.90;;;;;;5029347;28;20386;-71
2021/04/26 02:38:59;;;;;;;12.20;5.82;;;3.70;99.90;;;;;;5027784;28;20029;-71
2021/04/26 02:41:31;;;;;;;11.52;5.65;;;3.70;99.90;;;;;;5027744;28;20077;-71
2021/04/26 02:44:01;;;;;;;9.27;5.55;;;3.70;99.90;;;;;;5028979;28;20108;-71
2021/04/26 02:46:29;;;;;;;10.80;5.28;;;3.60;99.90;;;;;;5028848;28;20029;-71
2021/04/26 02:48:57;;;;;;;14.63;6.75;;;3.50;99.90;;;;;;5028906;28;20022;-71
2021/04/26 02:51:27;;;;;;;11.95;6.50;;;3.40;99.90;;;;;;5027673;28;20026;-71
2021/04/26 02:53:54;;;;;;;10.65;6.32;;;3.30;99.90;;;;;;5029068;28;20394;-71
2021/04/26 02:56:20;;;;;;;9.93;6.43;;;3.30;99.90;;;;;;5029133;28;20029;-72
2021/04/26 02:58:49;;;;;;;11.07;6.20;;;3.20;99.90;;;;;;5028832;28;20029;-71
2021/04/26 03:01:15;;;;;;;9.40;6.03;;;3.10;99.90;;;;;;5027348;28;20038;-71
2021/04/26 03:03:44;;;;;;;10.75;6.15;;;3.00;99.90;;;;;;5030875;28;20493;-71
2021/04/26 03:06:10;;;;;;;13.82;7.53;;;2.90;99.90;;;;;;5032319;28;20511;-71
2021/04/26 03:08:38;;;;;;;12.32;6.00;;;2.80;99.90;;;;;;5032264;28;20026;-71
2021/04/26 03:11:09;;;;;;;9.15;5.70;;;2.70;99.90;;;;;;5030970;28;20147;-71
2021/04/26 03:13:35;;;;;;;10.23;5.72;;;2.70;99.90;;;;;;5030720;28;20037;-71
2021/04/26 03:16:02;;;;;;;8.75;5.93;;;2.60;99.90;;;;;;5032127;28;20403;-71
2021/04/26 03:18:27;;;;;;;11.07;6.13;;;2.50;99.90;;;;;;5030794;28;20483;-71
2021/04/26 03:20:55;;;;;;;12.73;6.90;;;2.40;99.90;;;;;;5031956;28;20039;-71
2021/04/26 03:23:23;;;;;;;12.98;7.32;;;2.40;99.90;;;;;;5031915;28;20096;-71
2021/04/26 03:25:50;;;;;;;9.07;6.35;;;2.30;99.90;;;;;;5030560;28;20028;-71
2021/04/26 03:28:18;;;;;;;9.88;5.97;;;2.30;99.90;;;;;;5030581;28;20026;-71
2021/04/26 03:30:45;;;;;;;8.50;5.82;;;2.20;99.90;;;;;;5032095;28;20064;-72
2021/04/26 03:33:11;;;;;;;11.35;6.60;;;2.20;99.90;;;;;;5055728;22;20051;-72
2021/04/26 03:35:37;;;;;;;9.65;6.70;;;2.10;99.90;;;;;;5032060;28;20060;-72
2021/04/26 03:38:03;;;;;;;11.80;7.03;;;2.10;99.90;;;;;;5032026;28;20025;-73
2021/04/26 03:40:29;;;;;;;10.32;6.20;;;2.00;99.90;;;;;;5031806;28;20053;-73
2021/04/26 03:42:56;;;;;;;11.52;6.32;;;2.00;99.90;;;;;;5031921;28;20036;-72
2021/04/26 03:45:23;;;;;;;11.63;6.40;;;2.00;99.90;;;;;;5030255;28;20034;-72
2021/04/26 03:47:48;;;;;;;13.65;7.32;;;1.90;99.90;;;;;;5031698;28;20474;-72
2021/04/26 03:50:14;;;;;;;11.57;7.10;;;1.90;99.90;;;;;;5030308;28;20028;-72
2021/04/26 03:52:41;;;;;;;11.43;7.20;;;1.90;99.90;;;;;;5031504;28;20088;-72
2021/04/26 03:55:10;;;;;;;14.30;7.32;;;1.80;99.90;;;;;;5030175;28;20390;-73
2021/04/26 03:57:36;;;;;;;13.93;7.30;;;1.80;99.90;;;;;;5030209;28;20040;-72
2021/04/26 04:00:04;;;;;;;13.35;7.07;;;1.80;99.90;;;;;;5030028;28;20030;-73
2021/04/26 04:02:29;;;;;;;11.35;6.63;;;1.70;99.90;;;;;;5032744;28;20438;-72
2021/04/26 04:04:56;;;;;;;11.20;7.38;;;1.70;99.90;;;;;;5032457;28;20037;-72
2021/04/26 04:07:22;;;;;;;14.15;7.85;;;1.70;99.90;;;;;;5030589;28;20056;-72
2021/04/26 04:09:48;;;;;;;11.52;7.55;;;1.70;99.90;;;;;;5031512;28;20026;-72
2021/04/26 04:12:13;;;;;;;13.07;6.90;;;1.70;99.90;;;;;;5031496;28;20108;-73
2021/04/26 04:14:39;;;;;;;13.60;8.23;;;1.80;99.90;;;;;;5030169;28;20100;-73
2021/04/26 04:17:05;;;;;;;12.38;7.38;;;1.70;99.90;;;;;;5029976;28;20075;-72
2021/04/26 04:19:31;;;;;;;13.82;7.40;;;1.80;99.90;;;;;;5031131;28;20033;-72
2021/04/26 04:21:56;;;;;;;11.75;8.10;;;1.80;99.90;;;;;;5031058;28;20047;-72
2021/04/26 04:24:22;;;;;;;16.30;8.48;;;1.80;99.90;;;;;;5029636;28;20029;-72
2021/04/26 04:26:47;;;;;;;14.63;7.75;;;1.80;99.90;;;;;;5030934;28;20116;-72
2021/04/26 04:29:13;;;;;;;14.05;8.00;;;1.80;99.90;;;;;;5031248;28;20025;-72
2021/04/26 04:31:39;;;;;;;13.73;7.53;;;1.90;99.90;;;;;;5030843;28;20045;-73
2021/04/26 04:34:05;;;;;;;14.82;8.43;;;1.90;99.90;;;;;;5029450;28;20078;-72
2021/04/26 04:36:30;;;;;;;12.05;7.88;;;1.90;99.90;;;;;;5030798;28;20051;-72
2021/04/26 04:38:56;;;;;;;11.07;7.53;;;2.00;99.90;;;;;;5030778;28;20456;-73
2021/04/26 04:41:21;;;;;;;11.48;7.55;;;2.10;99.90;;;;;;5030736;28;20033;-72
2021/04/26 04:43:47;;;;;;;10.45;6.80;;;2.20;99.90;;;;;;5030519;28;20475;-72
2021/04/26 04:46:12;;;;;;;11.40;6.63;;;2.30;99.90;;;;;;5029288;28;20029;-73
2021/04/26 04:48:38;;;;;;;13.48;7.28;;;2.40;99.90;;;;;;5030655;28;20024;-73
2021/04/26 04:51:04;;;;;;;14.27;7.68;;;2.50;99.90;;;;;;5029608;28;20025;-72
2021/04/26 04:53:30;;;;;;;13.00;6.85;;;2.70;99.90;;;;;;5030502;28;20049;-72
2021/04/26 04:55:55;;;;;;;15.95;7.22;;;2.80;99.90;;;;;;5030494;28;20034;-73
2021/04/26 04:58:21;;;;;;;12.23;7.50;;;2.90;99.90;;;;;;5031194;28;20456;-73
2021/04/26 05:00:46;;;;;;;9.13;6.47;;;3.00;99.90;;;;;;5030649;28;20452;-72
2021/04/26 05:03:12;;;;;;;11.85;6.88;;;3.20;99.90;;;;;;5030250;28;20025;-73
2021/04/26 05:05:38;;;;;;;20.58;7.05;;;3.30;99.90;;;;;;5030377;28;20376;-72
2021/04/26 05:08:04;;;;;;;13.27;6.55;;;3.50;99.90;;;;;;5028989;28;20021;-73
2021/04/26 05:10:29;;;;;;;9.63;6.15;;;3.70;99.90;;;;;;5030413;28;20041;-73
2021/04/26 05:12:55;;;;;;;10.02;5.57;;;3.80;99.90;;;;;;5030042;28;20021;-73
2021/04/26 05:15:21;;;;;;;10.50;6.53;;;3.90;99.90;;;;;;5030118;28;20541;-72
2021/04/26 05:17:46;;;;;;;9.45;5.97;;;4.00;99.90;;;;;;5028677;28;20026;-73
2021/04/26 05:20:12;;;;;;;10.00;6.70;;;4.20;99.90;;;;;;5030336;28;20473;-73
2021/04/26 05:22:38;;;;;;;11.10;5.80;;;4.30;99.90;;;;;;5028697;28;20455;-73
2021/04/26 05:25:06;;;;;;;9.98;5.93;;;4.40;99.90;;;;;;5028652;28;20041;-73
2021/04/26 05:27:32;;;;;;;11.95;6.65;;;4.50;99.90;;;;;;5028279;28;20116;-73
2021/04/26 05:29:57;;;;;;;14.25;6.40;;;4.70;99.90;;;;;;5028556;28;20561;-73
2021/04/26 05:32:23;;;;;;;12.40;5.93;;;4.80;99.90;;;;;;5028332;28;20402;-72
2021/04/26 05:34:48;;;;;;;8.07;4.90;;;5.00;99.90;;;;;;5028595;28;20074;-73
2021/04/26 05:37:14;;;;;;;13.18;6.28;;;5.10;99.90;;;;;;5029827;28;20464;-73
2021/04/26 05:39:40;;;;;;;10.52;5.32;;;5.30;99.90;;;;;;5029826;28;20565;-72
2021/04/26 05:42:07;;;;;;;9.73;5.20;;;5.40;99.90;;;;;;5029909;28;20053;-74
2021/04/26 05:44:33;;;;;;;9.20;4.68;;;5.70;99.90;;;;;;5029655;28;20045;-73
2021/04/26 05:46:58;;;;;;;10.85;5.15;;;5.80;99.90;;;;;;5029568;28;20025;-73
2021/04/26 05:49:24;;;;;;;12.05;5.30;;;6.00;99.90;;;;;;5028260;28;20018;-73
2021/04/26 05:51:50;;;;;;;9.27;4.68;;;6.20;99.90;;;;;;5028418;28;20024;-73
2021/04/26 05:54:15;;;;;;;10.73;4.93;;;6.40;99.90;;;;;;5028380;28;20018;-73
2021/04/26 05:56:41;;;;;;;8.57;4.65;;;6.50;99.90;;;;;;5029534;28;20033;-73
2021/04/26 05:59:06;;;;;;;8.30;5.40;;;6.60;99.90;;;;;;5030038;28;20025;-73
2021/04/26 06:01:32;;;;;;;11.95;4.60;;;6.80;99.90;;;;;;5029481;28;20502;-72
2021/04/26 06:03:57;;;;;;;14.27;5.20;;;6.80;99.90;;;;;;5028016;28;20029;-73
2021/04/26 06:06:23;;;;;;;8.77;4.65;;;7.00;99.90;;;;;;5028071;28;20021;-73
2021/04/26 06:08:48;;;;;;;12.77;4.50;;;7.10;99.90;;;;;;5029471;28;20394;-73
2021/04/26 06:11:14;;;;;;;9.45;4.65;;;7.10;99.90;;;;;;5028083;28;20021;-73
2021/04/26 06:13:40;;;;;;;9.50;4.32;;;7.20;99.90;;;;;;5029226;28;20033;-73
2021/04/26 06:16:07;;;;;;;11.07;4.85;;;7.30;99.90;;;;;;5029320;28;20025;-73
2021/04/26 06:18:32;;;;;;;11.10;4.43;;;7.40;98.40;;;;;;5027994;28;20032;-73
2021/04/26 06:20:58;;;;;;;13.13;4.50;;;7.50;96.90;;;;;;5029157;28;20026;-73
2021/04/26 06:23:23;;;;;;;11.32;4.97;;;7.60;95.90;;;;;;5027938;28;20021;-73
2021/04/26 06:25:49;;;;;;;7.78;4.72;;;7.70;95.60;;;;;;5029693;28;20071;-73
2021/04/26 06:28:16;;;;;;;9.73;4.60;;;7.80;93.90;;;;;;5028631;28;20021;-73
2021/04/26 06:30:44;;;;;;;9.80;4.38;;;7.70;93.80;;;;;;5029862;28;20021;-73
2021/04/26 06:33:17;;;;;;;8.52;4.40;;;7.80;94.30;;;;;;5028408;28;20471;-74
2021/04/26 06:35:43;;;;;;;;;;;7.80;93.30;;;;;;5029868;28;20034;-73
2021/04/26 06:38:08;;;;;;;9.23;4.47;;;7.90;92.40;;;;;;5030305;28;19914;-74
2021/04/26 06:40:34;;;;;;;7.72;3.97;;;8.00;92.50;;;;;;5034092;28;20075;-73
2021/04/26 06:43:00;;;;;;;8.30;4.50;;;8.20;91.60;;;;;;5032325;28;20065;-75
2021/04/26 06:45:25;;;;;;;7.37;4.83;;;8.30;91.20;;;;;;5032958;28;20021;-73
2021/04/26 06:47:51;;;;;;;9.85;4.72;;;8.50;90.80;;;;;;5033304;28;20077;-73
2021/04/26 06:50:18;;;;;;;8.10;4.57;;;8.50;90.10;;;;;;5031707;28;20044;-73
2021/04/26 06:52:45;;;;;;;12.25;4.85;;;8.50;90.50;;;;;;5033214;28;20037;-73
2021/04/26 06:55:10;;;;;;;10.77;4.32;;;8.70;89.30;;;;;;5032762;28;20383;-73
2021/04/26 06:57:36;;;;;;;10.57;4.75;;;8.70;86.50;;;;;;5032754;28;20085;-72
2021/04/26 07:00:04;;;;;;;8.48;4.63;;;8.80;84.50;;;;;;5032817;28;20026;-73
2021/04/26 07:02:29;;;;;;;9.15;4.82;;;8.90;82.50;;;;;;5031274;28;20068;-73
2021/04/26 07:04:55;;;;;;;11.02;5.30;;;9.00;83.20;;;;;;5032906;28;20025;-72
2021/04/26 07:07:20;;;;;;;11.98;5.00;;;9.10;81.10;;;;;;5032680;28;20040;-73
2021/04/26 07:09:46;;;;;;;9.80;4.47;;;9.30;79.20;;;;;;5032746;28;20022;-72
2021/04/26 07:12:12;;;;;;;8.25;4.85;;;9.20;77.60;;;;;;5032466;28;20095;-73
2021/04/26 07:14:37;;;;;;;8.85;3.97;;;9.10;78.40;;;;;;5032560;28;20035;-73
2021/04/26 07:17:03;;;;;;;6.85;3.85;;;9.10;78.40;;;;;;5031289;28;20036;-72
2021/04/26 07:19:28;;;;;;;7.47;4.10;;;9.10;77.20;;;;;;5031417;28;20028;-74
2021/04/26 07:21:54;;;;;;;8.93;3.92;;;9.20;78.10;;;;;;5032509;28;20021;-74
2021/04/26 07:24:20;;;;;;;9.77;4.07;;;9.40;76.20;;;;;;5032486;28;20021;-73
2021/04/26 07:26:45;;;;;;;11.07;5.20;;;9.40;75.90;;;;;;5032196;28;20029;-73
2021/04/26 07:29:11;;;;;;;8.88;4.70;;;9.40;75.20;;;;;;5032640;28;20021;-73
2021/04/26 07:31:36;;;;;;;8.10;3.95;;;9.60;74.50;;;;;;5030997;28;20083;-73
2021/04/26 07:34:02;;;;;;;6.60;4.05;;;9.70;72.50;;;;;;5031952;28;20041;-74
2021/04/26 07:36:29;;;;;;;6.55;3.97;;;9.90;72.30;;;;;;5032378;28;20076;-73
2021/04/26 07:38:54;;;;;;;6.53;3.72;;;9.90;72.00;;;;;;5030843;28;20486;-73
2021/04/26 07:41:20;;;;;;;10.20;3.85;;;10.00;71.90;;;;;;5030827;28;20026;-73
2021/04/26 07:43:46;;;;;;;10.20;4.35;;;10.20;69.50;;;;;;5032191;28;20156;-72
2021/04/26 07:46:11;;;;;;;7.82;4.28;;;10.30;68.80;;;;;;5031924;28;20033;-73
2021/04/26 07:48:38;;;;;;;7.13;4.45;;;10.30;68.50;;;;;;5031708;28;20033;-73
2021/04/26 07:51:05;;;;;;;10.82;3.90;;;10.40;69.20;;;;;;5032411;28;20028;-73
2021/04/26 07:53:31;;;;;;;6.57;3.97;;;10.50;69.80;;;;;;5032441;28;20538;-71
2021/04/26 07:55:56;;;;;;;8.02;4.70;;;10.60;69.80;;;;;;5032285;28;20028;-73
2021/04/26 07:58:22;;;;;;;7.85;4.43;;;10.80;68.60;;;;;;5031846;28;20114;-73
2021/04/26 08:00:48;;;;;;;7.57;4.18;;;11.00;67.10;;;;;;5032183;28;20037;-73
2021/04/26 08:03:15;;;;;;;8.27;4.28;;;11.20;66.10;;;;;;5031884;28;20022;-73
2021/04/26 08:05:42;;;;;;;10.30;4.43;;;11.50;66.20;;;;;;5031894;28;20033;-73
2021/04/26 08:08:07;;;;;;;8.10;4.22;;;11.90;68.10;;;;;;5032191;28;20104;-73
2021/04/26 08:10:33;;;;;;;8.40;4.72;;;12.20;63.20;;;;;;5031863;28;20082;-73
2021/04/26 08:12:58;;;;;;;6.65;4.57;;;12.40;61.00;;;;;;5030572;28;20112;-73
2021/04/26 08:15:24;;;;;;;7.30;4.50;;;12.50;60.70;;;;;;5031648;28;20034;-73
2021/04/26 08:17:50;;;;;;;6.90;4.20;;;12.70;60.00;;;;;;5030582;28;20032;-75
2021/04/26 08:20:16;;;;;;;6.97;4.20;;;12.70;60.70;;;;;;5031442;28;20033;-74
2021/04/26 08:22:42;;;;;;;6.10;3.65;;;13.10;59.80;;;;;;5031440;28;20133;-73
2021/04/26 08:25:08;;;;;;;6.65;4.18;;;13.20;58.30;;;;;;5030212;28;20134;-73
2021/04/26 08:27:34;;;;;;;9.43;4.88;;;13.60;56.90;;;;;;5030087;28;20029;-73
2021/04/26 08:30:00;;;;;;;7.28;4.13;;;13.80;57.80;;;;;;5031554;28;20487;-74
2021/04/26 08:32:26;;;;;;;6.05;3.63;;;14.10;58.20;;;;;;5029987;28;20030;-74
2021/04/26 08:34:52;;;;;;;6.70;4.40;;;14.40;55.40;;;;;;5031364;28;20454;-74
2021/04/26 08:37:18;;;;;;;8.38;4.45;;;14.80;54.40;;;;;;5031245;28;20036;-74
2021/04/26 08:39:43;;;;;;;7.95;4.25;;;15.20;54.60;;;;;;5031058;28;20483;-74
2021/04/26 08:42:09;;;;;;;9.15;4.18;;;15.50;53.30;;;;;;5031269;28;20033;-73
2021/04/26 08:44:35;;;;;;;7.20;4.72;;;15.90;50.80;;;;;;5032047;28;20026;-74
2021/04/26 08:47:01;;;;;;;7.70;4.63;;;16.30;49.90;;;;;;5031409;28;20025;-74
2021/04/26 08:49:26;;;;;;;7.00;4.20;;;16.60;48.10;;;;;;5029993;28;20033;-74
2021/04/26 08:51:52;;;;;;;7.05;3.75;;;16.80;47.50;;;;;;5031216;28;20029;-74
2021/04/26 08:54:18;;;;;;;7.32;4.65;;;17.20;47.30;;;;;;5031387;28;20398;-74
2021/04/26 08:56:45;;;;;;;8.43;4.55;;;17.60;45.80;;;;;;5031187;28;20033;-74
2021/04/26 08:59:11;;;;;;;11.23;4.18;;;18.00;45.00;;;;;;5030923;28;20026;-74
2021/04/26 09:01:37;;;;;;;6.13;3.90;;;17.80;44.30;;;;;;5030223;28;20026;-74
2021/04/26 09:04:08;;;;;;;8.60;4.47;;;17.50;44.00;;;;;;5031157;28;20031;-74
2021/04/26 09:06:54;;;;;;;7.03;4.10;;;17.80;45.40;;;;;;5031363;28;20017;-74
2021/04/26 09:09:38;;;;;;;9.15;4.18;;;18.10;44.40;;;;;;5029424;28;20087;-73
2021/04/26 09:12:13;;;;;;;5.63;3.90;;;18.50;42.80;;;;;;5029592;28;20474;-74
2021/04/26 09:14:49;;;;;;;5.30;3.53;;;18.80;44.50;;;;;;5031090;28;20030;-74
2021/04/26 09:17:24;;;;;;;6.93;4.13;;;19.10;41.40;;;;;;5030771;28;20025;-74
2021/04/26 09:19:49;;;;;;;7.15;4.20;;;19.20;41.40;;;;;;5030808;28;20049;-74
2021/04/26 09:22:15;;;;;;;8.55;4.63;;;19.00;40.40;;;;;;5030435;28;20037;-74
2021/04/26 09:24:40;;;;;;;7.88;4.80;;;19.40;41.10;;;;;;5030421;28;20185;-74
2021/04/26 09:27:10;;;;;;;7.72;5.20;;;19.30;40.10;;;;;;5030131;28;20029;-74
2021/04/26 09:29:36;;;;;;;9.02;4.82;;;19.50;39.60;;;;;;5030067;28;20382;-73
2021/04/26 09:32:11;;;;;;;6.15;4.00;;;19.60;39.90;;;;;;5029907;28;20104;-74
2021/04/26 09:34:43;;;;;;;6.82;3.95;;;20.20;40.50;;;;;;5056816;22;20051;-72
2021/04/26 09:37:17;;;;;;;7.65;4.07;;;20.70;38.30;;;;;;5028492;28;20108;-72
2021/04/26 09:40:00;;;;;;;6.70;3.85;;;20.80;36.60;;;;;;5028373;28;20029;-72
2021/04/26 09:42:49;;;;;;;6.97;3.63;;;21.30;36.80;;;;;;5028399;28;20033;-72
2021/04/26 09:45:24;;;;;;;6.68;3.50;;;21.90;34.40;;;;;;5009904;28;20026;-73
2021/04/26 09:48:08;;;;;;;6.40;3.58;;;22.70;33.50;;;;;;5008483;28;20504;-73
2021/04/26 09:50:34;;;;;;;6.78;3.97;;;23.40;32.50;;;;;;5008558;28;20033;-73
2021/04/26 09:53:09;;;;;;;6.53;3.60;;;24.70;30.50;;;;;;5009738;28;20483;-73
2021/04/26 09:55:35;;;;;;;4.72;3.42;;;27.60;27.90;;;;;;5008533;28;20036;-73
2021/04/26 09:58:03;;;;;;;3.95;2.92;;;30.70;24.40;;;;;;5010045;28;20029;-73
2021/04/26 10:00:28;;;;;;;5.13;3.00;;;33.70;22.90;;;;;;5008410;28;20451;-74
2021/04/26 10:02:55;;;;;;;5.57;3.42;;;36.10;21.10;;;;;;5008337;28;20053;-71
2021/04/26 10:05:20;;;;;;;5.78;3.00;;;37.80;19.50;;;;;;5009919;28;20387;-72
2021/04/26 10:07:48;;;;;;;4.32;3.00;;;37.80;18.40;;;;;;5008305;28;20029;-73
2021/04/26 10:10:14;;;;;;;6.55;3.53;;;37.10;18.20;;;;;;5009843;28;20018;-73
2021/04/26 10:12:40;;;;;;;4.53;3.22;;;37.30;17.50;;;;;;5008700;28;20034;-73
2021/04/26 10:15:07;;;;;;;5.03;2.95;;;38.70;17.60;;;;;;5012362;28;20403;-71
2021/04/26 10:17:33;;;;;;;4.57;2.85;;;40.00;17.10;;;;;;5013540;28;20034;-72
2021/04/26 10:19:59;;;;;;;3.97;3.00;;;39.90;17.10;;;;;;5012337;28;20025;-71
2021/04/26 10:22:39;;;;;;;7.70;3.65;;;40.40;16.20;;;;;;5012260;28;20029;-71
2021/04/26 10:25:06;;;;;;;4.15;2.97;;;39.00;16.00;;;;;;5013735;28;20088;-72
2021/04/26 10:27:37;;;;;;;3.42;3.10;;;39.90;16.80;;;;;;5013499;28;20491;-71
2021/04/26 10:30:16;;;;;;;4.65;2.85;;;39.80;16.30;;;;;;5012628;28;20033;-71
2021/04/26 10:32:58;;;;;;;5.35;2.90;;;40.80;16.10;;;;;;5013891;28;20022;-71
2021/04/26 10:35:41;;;;;;;4.32;3.00;;;41.20;16.40;;;;;;5014604;28;20022;-71
2021/04/26 10:38:40;;;;;;;4.05;3.17;;;41.30;15.80;;;;;;5013052;28;20034;-71
2021/04/26 10:41:08;;;;;;;3.83;2.63;;;41.60;15.60;;;;;;5013535;28;20462;-72
2021/04/26 10:43:34;;;;;;;4.47;3.03;;;42.00;15.30;;;;;;5012295;28;20105;-71
2021/04/26 10:46:29;;;;;;;3.30;2.50;;;42.40;15.30;;;;;;5012149;28;20079;-72
2021/04/26 10:49:04;;;;;;;3.90;2.58;;;43.90;15.30;;;;;;5000507;28;20105;-72
2021/04/26 10:51:30;;;;;;;4.65;2.75;;;43.80;14.30;;;;;;5011856;28;20025;-72
2021/04/26 10:53:55;;;;;;;3.22;2.78;;;43.70;14.00;;;;;;5011744;28;20114;-72
2021/04/26 10:56:27;;;;;;;3.83;2.58;;;43.40;13.80;;;;;;5011641;28;20395;-72
2021/04/26 10:59:31;;;;;;;6.10;3.38;;;43.60;14.60;;;;;;5012915;28;20050;-72
2021/04/26 11:01:56;;;;;;;4.13;2.45;;;43.60;14.00;;;;;;4952729;29;20102;-72
2021/04/26 11:04:22;;;;;;;3.85;2.65;;;44.50;14.40;;;;;;4952442;28;20047;-72
2021/04/26 11:07:17;;;;;;;4.25;2.45;;;44.90;14.00;;;;;;4980316;28;20471;-72
2021/04/26 11:09:43;;;;;;;5.05;2.88;;;44.90;13.80;;;;;;5011468;28;20021;-72
2021/04/26 11:12:30;;;;;;;3.55;2.90;;;45.20;14.20;;;;;;5012662;28;20093;-72
2021/04/26 11:15:18;;;;;;;2.80;2.45;;;45.80;13.50;;;;;;5012650;28;20611;-72
2021/04/26 11:17:45;;;;;;;3.92;2.80;;;45.60;13.40;;;;;;5012602;28;20076;-72
2021/04/26 11:20:13;;;;;;;3.83;2.67;;;45.70;13.80;;;;;;5012598;28;20068;-72
2021/04/26 11:22:40;;;;;;;5.88;3.20;;;45.20;12.80;;;;;;5011203;28;20057;-72
2021/04/26 11:25:07;;;;;;;4.57;2.90;;;44.50;12.90;;;;;;5010717;28;20447;-72
2021/04/26 11:27:34;;;;;;;6.93;3.17;;;44.70;13.70;;;;;;5012580;28;20567;-72
2021/04/26 11:29:59;;;;;;;3.85;3.05;;;43.70;13.70;;;;;;5012616;28;20030;-72
2021/04/26 11:32:26;;;;;;;4.55;2.90;;;43.20;14.20;;;;;;5012194;28;20025;-71
2021/04/26 11:34:53;;;;;;;4.45;3.00;;;42.80;14.60;;;;;;5012130;28;20088;-72
2021/04/26 11:37:21;;;;;;;4.03;3.33;;;43.50;14.20;;;;;;5010897;28;20054;-72
2021/04/26 11:39:48;;;;;;;3.42;2.70;;;44.30;14.70;;;;;;5010901;28;20026;-72
2021/04/26 11:42:40;;;;;;;6.40;3.25;;;44.70;13.80;;;;;;5012310;28;20036;-72
2021/04/26 11:45:07;;;;;;;3.92;2.92;;;44.50;13.80;;;;;;5008308;28;20042;-72
2021/04/26 11:47:34;;;;;;;4.32;3.60;;;43.80;13.60;;;;;;5010690;28;20026;-72
2021/04/26 11:50:04;;;;;;;8.63;3.75;;;43.10;13.50;;;;;;5010646;28;20056;-72
2021/04/26 11:52:32;;;;;;;4.35;2.80;;;43.90;14.80;;;;;;5012309;28;20060;-71
2021/04/26 11:55:03;;;;;;;3.70;2.75;;;44.60;14.30;;;;;;5010570;28;20029;-72
2021/04/26 11:57:40;;;;;;;5.47;2.88;;;44.70;14.20;;;;;;5010688;28;20033;-72
2021/04/26 12:00:10;;;;;;;3.10;2.58;;;45.00;13.70;;;;;;5012269;28;20025;-72
2021/04/26 12:02:42;;;;;;;4.18;3.08;;;44.70;13.30;;;;;;5010287;28;20491;-72
2021/04/26 12:05:10;;;;;;;3.38;2.63;;;43.30;13.90;;;;;;5011987;28;20026;-72
2021/04/26 12:07:36;;;;;;;4.07;2.60;;;43.40;14.00;;;;;;5011549;28;20387;-72
2021/04/26 12:10:14;;;;;;;3.83;2.92;;;44.10;14.20;;;;;;5010483;28;20026;-72
2021/04/26 12:12:41;;;;;;;5.43;2.67;;;43.70;13.40;;;;;;5011606;28;20030;-72
2021/04/26 12:15:13;;;;;;;4.63;3.10;;;44.40;14.10;;;;;;5011280;28;20026;-72
2021/04/26 12:17:41;;;;;;;4.00;3.20;;;44.70;13.30;;;;;;5010082;28;20056;-73
2021/04/26 12:20:22;;;;;;;4.13;3.00;;;43.80;13.20;;;;;;5011451;28;20018;-72
2021/04/26 12:22:56;;;;;;;4.88;2.45;;;41.90;12.90;;;;;;5011226;28;20387;-72
2021/04/26 12:25:25;;;;;;;4.88;3.30;;;42.20;13.60;;;;;;5011504;28;20029;-73
2021/04/26 12:28:04;;;;;;;5.50;2.88;;;42.40;14.60;;;;;;5011155;28;20050;-73
2021/04/26 12:30:39;;;;;;;6.32;3.10;;;42.60;15.00;;;;;;5011310;28;20036;-72
2021/04/26 12:33:24;;;;;;;4.25;3.33;;;42.00;14.70;;;;;;5009542;28;20038;-72
2021/04/26 12:35:51;;;;;;;4.35;3.17;;;42.50;14.30;;;;;;5009927;28;20022;-72
2021/04/26 12:38:23;;;;;;;5.07;3.30;;;42.10;13.60;;;;;;5009933;28;20018;-72
2021/04/26 12:40:50;;;;;;;3.63;2.83;;;42.80;13.70;;;;;;5009663;28;20495;-72
2021/04/26 12:43:15;;;;;;;4.55;3.20;;;42.40;14.10;;;;;;5010910;28;20032;-72
2021/04/26 12:45:45;;;;;;;4.00;2.90;;;42.20;13.80;;;;;;5011017;28;20538;-72
2021/04/26 12:48:19;;;;;;;10.82;3.25;;;42.00;14.20;;;;;;5010819;28;20475;-71
2021/04/26 12:50:52;;;;;;;3.92;2.75;;;42.20;15.20;;;;;;5010733;28;20040;-72
2021/04/26 12:53:33;;;;;;;3.85;2.40;;;42.80;13.90;;;;;;5010675;28;20046;-72
2021/04/26 12:56:06;;;;;;;3.45;2.90;;;43.40;13.60;;;;;;5011170;28;20076;-72
2021/04/26 12:58:38;;;;;;;4.20;2.90;;;42.40;12.90;;;;;;5010921;28;20026;-72